Time;durP1;ratioP1;P1;durP2;ratioP2;P2;SDS_P1;SDS_P2;PMS_P1;PMS_P2;Temp;Humidity;BMP_temperature;BMP_pressure;BME280_temperature;BME280_humidity;BME280_pressure;Samples;Min_cycle;Max_cycle;Signal;HPM_P1;HPM_P2
2022/04/29 00:02:51;;;;;;;17.15;7.38;;;;;;;3.85;nan;98676.16;10403681;28;20045;-71
2022/04/29 00:07:53;;;;;;;17.63;7.10;;;;;;;3.89;nan;98683.09;10401958;28;20041;-71
2022/04/29 00:12:55;;;;;;;15.40;7.35;;;;;;;3.85;nan;98673.56;10394634;28;20064;-71
2022/04/29 00:17:57;;;;;;;16.90;7.32;;;;;;;3.83;nan;98664.91;10401198;28;20049;-71
2022/04/29 00:22:58;;;;;;;17.88;6.63;;;;;;;3.82;nan;98663.16;10402949;28;20045;-71
2022/04/29 00:28:00;;;;;;;13.27;6.55;;;;;;;3.81;nan;98664.00;10401789;28;20053;-71
2022/04/29 00:33:02;;;;;;;13.38;6.43;;;;;;;3.83;nan;98670.09;10403559;28;20126;-71
2022/04/29 00:38:04;;;;;;;14.48;6.40;;;;;;;3.80;nan;98670.94;10400141;28;20049;-72
2022/04/29 00:43:05;;;;;;;18.48;6.57;;;;;;;3.78;nan;98662.25;10399471;28;20049;-70
2022/04/29 00:48:08;;;;;;;15.60;6.63;;;;;;;3.77;nan;98659.66;10415014;28;20077;-71
2022/04/29 00:53:12;;;;;;;16.33;6.57;;;;;;;3.80;nan;98670.94;10400673;28;20405;-71
2022/04/29 00:58:16;;;;;;;14.88;6.65;;;;;;;3.77;nan;98664.81;10400019;28;20049;-70
2022/04/29 01:03:19;;;;;;;13.98;6.60;;;;;;;3.70;nan;98638.88;10401521;28;20081;-71
2022/04/29 01:08:21;;;;;;;17.20;6.72;;;;;;;3.64;nan;98615.53;10399090;28;20122;-72
2022/04/29 01:13:23;;;;;;;17.75;6.82;;;;;;;3.57;nan;98598.19;10398371;28;20076;-71
2022/04/29 01:18:27;;;;;;;17.75;6.05;;;;;;;3.50;nan;98571.41;10413413;28;20049;-71
2022/04/29 01:23:29;;;;;;;15.25;6.53;;;;;;;3.44;nan;98542.00;10397493;28;20045;-70
2022/04/29 01:28:31;;;;;;;15.70;7.25;;;;;;;3.36;nan;98518.63;10392139;28;20075;-71
2022/04/29 01:33:35;;;;;;;15.90;6.45;;;;;;;3.29;nan;98499.63;10401679;28;20104;-71
2022/04/29 01:38:37;;;;;;;14.27;6.38;;;;;;;3.26;nan;98484.06;10398294;28;20120;-70
2022/04/29 01:43:40;;;;;;;15.13;6.32;;;;;;;3.24;nan;98478.00;10398294;28;20049;-71
2022/04/29 01:48:45;;;;;;;14.07;6.13;;;;;;;3.22;nan;98476.28;10398761;28;20046;-71
2022/04/29 01:53:53;;;;;;;13.38;5.95;;;;;;;3.22;nan;98476.28;10412189;28;20044;-71
2022/04/29 01:58:56;;;;;;;13.38;6.13;;;;;;;3.15;nan;98449.47;10408523;28;20532;-71
2022/04/29 02:04:01;;;;;;;18.73;6.85;;;;;;;3.07;nan;98425.28;10406242;28;20502;-71
2022/04/29 02:09:07;;;;;;;15.35;6.45;;;;;;;2.96;nan;98384.66;10409806;28;20121;-71
2022/04/29 02:14:09;;;;;;;11.95;6.32;;;;;;;2.85;nan;98337.16;10397551;28;20099;-72
2022/04/29 02:19:30;;;;;;;13.77;6.00;;;;;;;2.77;nan;98310.41;10408119;28;20182;-71
2022/04/29 02:24:32;;;;;;;17.52;7.40;;;;;;;2.72;nan;98291.38;10397904;28;20124;-70
2022/04/29 02:29:35;;;;;;;14.43;6.70;;;;;;;2.68;nan;98280.19;10412032;28;20052;-70
2022/04/29 02:34:45;;;;;;;13.45;6.75;;;;;;;2.62;nan;98259.47;10402167;28;20053;-71
2022/04/29 02:39:47;;;;;;;16.73;6.78;;;;;;;2.57;nan;98240.47;10410757;28;20076;-71
2022/04/29 02:44:49;;;;;;;15.60;7.70;;;;;;;2.52;nan;98222.31;10395324;28;20065;-71
2022/04/29 02:49:55;;;;;;;12.93;6.47;;;;;;;2.51;nan;98228.38;10396453;28;20497;-71
2022/04/29 02:54:57;;;;;;;15.98;7.30;;;;;;;2.44;nan;98193.84;10393574;28;20147;-71
2022/04/29 03:00:18;;;;;;;15.48;7.07;;;;;;;2.46;nan;98201.63;10397318;28;20613;-70
2022/04/29 03:05:19;;;;;;;14.68;7.43;;;;;;;2.38;nan;98182.63;10396111;28;20050;-70
2022/04/29 03:10:21;;;;;;;15.80;7.65;;;;;;;2.38;nan;98178.31;10405410;28;20068;-70
2022/04/29 03:15:25;;;;;;;19.30;7.65;;;;;;;2.45;nan;98212.81;10402111;28;20047;-71
2022/04/29 03:20:29;;;;;;;18.20;7.28;;;;;;;2.57;nan;98256.84;10406947;28;20060;-70
2022/04/29 03:25:32;;;;;;;15.23;6.97;;;;;;;2.60;nan;98269.78;10395767;28;20042;-70
2022/04/29 03:30:35;;;;;;;19.33;7.82;;;;;;;2.63;nan;98287.88;10393838;28;20421;-70
2022/04/29 03:35:40;;;;;;;17.67;7.60;;;;;;;2.60;nan;98274.94;10395274;28;20056;-70
2022/04/29 03:40:43;;;;;;;15.07;7.43;;;;;;;2.58;nan;98268.91;10388159;28;20056;-70
2022/04/29 03:45:46;;;;;;;16.75;7.07;;;;;;;2.54;nan;98251.66;10394791;28;20045;-70
2022/04/29 03:50:56;;;;;;;14.70;7.25;;;;;;;2.54;nan;98259.41;10393842;28;20057;-71
2022/04/29 03:55:58;;;;;;;17.27;8.38;;;;;;;2.55;nan;98265.41;10394418;28;20041;-71
2022/04/29 04:01:00;;;;;;;15.75;7.60;;;;;;;2.56;nan;98267.16;10410195;28;20045;-71
2022/04/29 04:11:33;;;;;;;13.35;7.70;;;;;;;2.55;nan;98268.88;10407977;28;20053;-71
2022/04/29 04:16:36;;;;;;;18.52;8.13;;;;;;;2.62;nan;98303.38;10396868;28;20111;-71
2022/04/29 04:21:39;;;;;;;18.00;7.50;;;;;;;2.65;nan;98312.00;10417547;28;20091;-71
2022/04/29 04:26:41;;;;;;;17.15;8.02;;;;;;;2.74;nan;98347.41;10401168;28;20044;-71
2022/04/29 04:31:47;;;;;;;17.75;7.32;;;;;;;2.85;nan;98388.84;10411159;28;20045;-71
2022/04/29 04:36:52;;;;;;;19.00;7.88;;;;;;;2.97;nan;98448.47;10401750;28;20056;-70
2022/04/29 04:41:56;;;;;;;19.17;8.60;;;;;;;3.19;nan;98534.84;10400867;28;20116;-70
2022/04/29 04:47:10;;;;;;;15.07;7.47;;;;;;;3.27;nan;98566.00;10400221;28;20131;-70
2022/04/29 04:52:44;;;;;;;19.13;8.50;;;;;;;3.34;nan;98604.00;10414593;28;20104;-70
2022/04/29 04:57:47;;;;;;;14.07;7.22;;;;;;;3.41;nan;98619.59;10399414;28;20068;-71
2022/04/29 05:02:49;;;;;;;18.20;8.85;;;;;;;3.57;nan;98688.78;10388355;28;20054;-70
2022/04/29 05:08:20;;;;;;;;;;;;;;;3.78;nan;98777.91;10391699;28;20038;-70
2022/04/29 05:13:22;;;;;;;24.50;9.57;;;;;;;3.99;nan;98861.00;10383012;28;19925;-71
2022/04/29 05:18:25;;;;;;;16.10;8.50;;;;;;;4.25;nan;98961.53;10396249;28;20115;-70
2022/04/29 05:23:37;;;;;;;16.58;8.45;;;;;;;4.45;nan;99049.03;10394045;28;20041;-71
2022/04/29 05:28:57;;;;;;;22.67;8.93;;;;;;;4.61;nan;99102.84;10387646;28;20037;-71
2022/04/29 05:34:17;;;;;;;23.25;8.80;;;;;;;4.80;nan;99188.66;10388015;28;20057;-70
2022/04/29 05:45:05;;;;;;;20.65;8.57;;;;;;;4.97;nan;99252.03;10383351;28;20077;-70
2022/04/29 05:50:07;;;;;;;16.38;8.77;;;;;;;5.14;nan;99325.78;10384610;28;20596;-70
2022/04/29 05:55:13;;;;;;;22.08;12.68;;;;;;;5.35;nan;99410.03;10382912;28;20085;-70
2022/04/29 06:00:35;;;;;;;18.02;8.35;;;;;;;5.56;nan;99489.13;10383705;28;20053;-71
2022/04/29 06:05:41;;;;;;;22.10;9.85;;;;;;;5.76;nan;99573.44;10382501;28;20049;-70
2022/04/29 06:10:43;;;;;;;17.30;9.75;;;;;;;6.07;nan;99703.94;10386172;28;20042;-70
2022/04/29 06:15:46;;;;;;;24.27;9.10;;;;;;;6.26;nan;99777.03;10402417;28;20050;-70
2022/04/29 06:21:23;;;;;;;24.52;8.80;;;;;;;6.55;nan;99900.69;10376912;28;20498;-70
2022/04/29 06:26:34;;;;;;;17.70;9.20;;;;;;;6.77;nan;99989.56;10388935;28;20049;-70
2022/04/29 06:31:36;;;;;;;18.80;8.43;;;;;;;6.96;nan;100068.88;10390840;28;20041;-70
2022/04/29 06:36:41;;;;;;;19.70;8.65;;;;;;;7.15;nan;100142.16;10382240;28;20081;-69
2022/04/29 06:41:45;;;;;;;20.98;8.18;;;;;;;7.88;nan;100436.34;10383535;28;20107;-69
2022/04/29 06:47:03;;;;;;;14.05;7.03;;;;;;;8.64;nan;100746.84;10378974;28;20541;-71
2022/04/29 06:52:23;;;;;;;19.83;6.90;;;;;;;9.45;nan;101078.88;10379918;28;20042;-70
2022/04/29 06:57:36;;;;;;;16.67;4.95;;;;;;;9.93;nan;101286.75;10389109;28;20242;-71
2022/04/29 07:02:38;;;;;;;12.05;4.90;;;;;;;9.93;nan;101289.34;10388254;28;20155;-70
2022/04/29 07:07:40;;;;;;;10.48;4.90;;;;;;;10.11;nan;101359.63;10383420;28;20049;-70
2022/04/29 07:13:05;;;;;;;14.43;4.63;;;;;;;10.59;nan;101558.25;10385120;28;20084;-70
2022/04/29 07:18:06;;;;;;;13.98;4.15;;;;;;;10.76;nan;101646.06;10379446;28;20076;-70
2022/04/29 07:23:08;;;;;;;12.35;4.80;;;;;;;10.91;nan;101702.38;10363694;28;20091;-70
2022/04/29 07:28:10;;;;;;;15.40;4.18;;;;;;;10.77;nan;101652.19;10388418;28;20042;-70
2022/04/29 07:33:12;;;;;;;13.75;4.30;;;;;;;10.25;nan;101437.69;10384591;28;20119;-69
2022/04/29 07:43:58;;;;;;;15.75;4.75;;;;;;;10.47;nan;101529.97;10382403;28;20046;-70
2022/04/29 07:49:00;;;;;;;13.90;4.03;;;;;;;11.13;nan;101799.16;10384401;28;20084;-70
2022/04/29 07:54:01;;;;;;;9.32;3.92;;;;;;;11.10;nan;101793.84;10386275;28;20188;-69
2022/04/29 07:59:03;;;;;;;13.25;4.03;;;;;;;11.04;nan;101770.06;10388693;28;20037;-70
2022/04/29 08:04:05;;;;;;;10.57;4.03;;;;;;;10.54;nan;101567.72;10393930;28;20630;-69
2022/04/29 08:09:08;;;;;;;9.82;3.88;;;;;;;10.40;nan;101513.19;10384786;28;20037;-70
2022/04/29 08:14:13;;;;;;;8.77;4.18;;;;;;;10.31;nan;101473.59;10387143;28;20042;-70
2022/04/29 08:19:54;;;;;;;10.73;4.03;;;;;;;10.55;nan;101566.84;10372167;28;20046;-71
2022/04/29 08:24:56;;;;;;;16.50;4.50;;;;;;;10.96;nan;101745.34;10391829;28;20068;-71
2022/04/29 08:29:58;;;;;;;10.18;3.50;;;;;;;11.58;nan;101999.00;10383264;28;20049;-69
2022/04/29 08:35:00;;;;;;;17.08;4.88;;;;;;;11.61;nan;102010.47;10389150;28;20053;-69
2022/04/29 08:40:02;;;;;;;13.95;3.90;;;;;;;11.52;nan;101972.56;10384444;28;20049;-70
2022/04/29 08:45:12;;;;;;;10.63;3.13;;;;;;;11.38;nan;101919.66;10387472;28;20044;-70
2022/04/29 08:50:34;;;;;;;8.80;2.88;;;;;;;11.49;nan;101955.88;10390532;28;20050;-68
2022/04/29 09:01:04;;;;;;;11.40;2.72;;;;;;;11.78;nan;102078.34;10386217;28;20049;-70
2022/04/29 09:06:06;;;;;;;13.70;2.90;;;;;;;11.83;nan;102109.16;10381916;28;20169;-69
2022/04/29 09:11:09;;;;;;;9.38;2.65;;;;;;;11.95;nan;102155.03;10386874;28;20034;-70
2022/04/29 09:16:12;;;;;;;9.52;3.70;;;;;;;11.99;nan;102173.59;10388996;28;20058;-71
2022/04/29 09:21:22;;;;;;;8.45;3.08;;;;;;;12.32;nan;102308.56;10386075;28;20046;-70
2022/04/29 09:26:24;;;;;;;9.00;3.00;;;;;;;12.62;nan;102434.84;10393901;28;20410;-69
2022/04/29 09:32:01;;;;;;;;;;;;;;;12.78;nan;102504.63;10398539;28;20448;-69
2022/04/29 09:37:36;;;;;;;10.95;2.90;;;;;;;13.58;nan;102836.34;10398760;28;19924;-69
2022/04/29 09:42:40;;;;;;;12.75;2.70;;;;;;;14.04;nan;103032.06;10399798;28;20049;-70
2022/04/29 09:47:44;;;;;;;7.47;2.63;;;;;;;13.91;nan;102975.38;10409179;28;20236;-69
2022/04/29 09:52:45;;;;;;;10.02;2.20;;;;;;;13.22;nan;102680.59;10399452;28;20461;-69
2022/04/29 09:57:52;;;;;;;10.15;2.70;;;;;;;13.24;nan;102685.09;10400085;28;20076;-70
2022/04/29 10:02:53;;;;;;;7.88;2.60;;;;;;;13.75;nan;102904.53;10399596;28;20050;-69
2022/04/29 10:08:01;;;;;;;7.50;2.83;;;;;;;14.21;nan;103095.06;10398699;28;20045;-70
2022/04/29 10:13:05;;;;;;;6.30;2.10;;;;;;;14.50;nan;103212.13;10397362;28;20064;-70
2022/04/29 10:23:50;;;;;;;8.05;2.05;;;;;;;14.58;nan;103239.72;10399335;28;20061;-69
2022/04/29 10:28:52;;;;;;;5.68;2.08;;;;;;;13.71;nan;102868.41;10400910;28;20040;-70
2022/04/29 10:33:53;;;;;;;7.28;2.47;;;;;;;13.91;nan;102942.88;10401200;28;20389;-70
2022/04/29 10:39:01;;;;;;;7.90;2.40;;;;;;;13.83;nan;102913.63;10410133;28;20046;-70
2022/04/29 10:44:04;;;;;;;7.00;2.45;;;;;;;14.19;nan;103060.75;10398214;28;20053;-69
2022/04/29 10:49:26;;;;;;;4.82;2.00;;;;;;;14.11;nan;103014.75;10392106;28;20069;-69
2022/04/29 10:54:55;;;;;;;9.38;3.13;;;;;;;14.30;nan;103105.94;10397883;28;20049;-69
2022/04/29 11:00:11;;;;;;;;;;;;;;;14.23;nan;103073.19;10399688;28;20541;-69
2022/04/29 11:05:37;;;;;;;5.72;2.30;;;;;;;13.94;nan;102941.25;10357500;28;19928;-70
2022/04/29 11:11:05;;;;;;;7.43;2.20;;;;;;;14.78;nan;103295.03;10360560;28;20053;-70
2022/04/29 11:16:19;;;;;;;5.88;2.22;;;;;;;14.38;nan;103122.03;10412144;28;20480;-69
2022/04/29 11:26:52;;;;;;;4.32;1.90;;;;;;;14.08;nan;102988.28;10401715;28;20255;-70
2022/04/29 11:31:54;;;;;;;6.28;2.28;;;;;;;14.29;nan;103069.88;10400091;28;20079;-71
2022/04/29 11:36:56;;;;;;;8.00;2.00;;;;;;;13.89;nan;102905.06;10405518;28;20045;-70
2022/04/29 11:41:59;;;;;;;8.23;1.95;;;;;;;14.01;nan;102949.41;10404979;28;20057;-70
2022/04/29 11:47:02;;;;;;;5.70;1.83;;;;;;;14.22;nan;103037.13;10404534;28;20037;-70
2022/04/29 11:52:23;;;;;;;3.75;1.67;;;;;;;14.27;nan;103051.38;10404436;28;20508;-69
2022/04/29 11:57:30;;;;;;;9.18;1.88;;;;;;;14.32;nan;103072.63;10405171;28;20119;-70
2022/04/29 12:02:32;;;;;;;6.30;2.20;;;;;;;14.50;nan;103140.97;10400557;28;20045;-70
2022/04/29 12:07:45;;;;;;;11.55;2.22;;;;;;;14.46;nan;103120.63;10406361;28;20045;-69
2022/04/29 12:12:57;;;;;;;3.17;1.90;;;;;;;15.13;nan;103399.31;10398053;28;20095;-70
2022/04/29 12:18:06;;;;;;;9.38;2.10;;;;;;;14.72;nan;103215.66;10405994;28;20531;-70
2022/04/29 12:23:24;;;;;;;5.28;1.90;;;;;;;15.26;nan;103450.84;10403921;28;20085;-69
2022/04/29 12:28:31;;;;;;;5.57;1.90;;;;;;;15.32;nan;103480.13;10405877;28;20045;-70
2022/04/29 12:39:39;;;;;;;7.35;2.60;;;;;;;14.65;nan;103177.59;10404743;28;20049;-70
2022/04/29 12:50:24;;;;;;;6.43;2.15;;;;;;;14.44;nan;103082.75;10402909;28;20091;-70
2022/04/29 12:55:47;;;;;;;6.70;2.40;;;;;;;14.73;nan;103191.09;10401358;28;20057;-70
2022/04/29 13:00:55;;;;;;;6.80;2.30;;;;;;;14.80;nan;103224.75;10396829;28;20042;-73
2022/04/29 13:05:58;;;;;;;7.88;1.90;;;;;;;15.07;nan;103338.34;10404349;28;20061;-71
2022/04/29 13:11:03;;;;;;;5.40;1.83;;;;;;;14.96;nan;103290.47;10402918;28;20576;-71
2022/04/29 13:16:05;;;;;;;4.28;1.70;;;;;;;14.83;nan;103231.06;10402982;28;20057;-71
2022/04/29 13:21:12;;;;;;;6.43;2.10;;;;;;;14.24;nan;102974.84;10397962;28;20044;-70
2022/04/29 13:26:16;;;;;;;7.55;2.10;;;;;;;13.66;nan;102735.72;10398977;28;20240;-72
2022/04/29 13:31:18;;;;;;;3.80;1.92;;;;;;;13.94;nan;102841.16;10394365;28;20041;-71
2022/04/29 13:36:21;;;;;;;4.57;1.90;;;;;;;14.25;nan;102970.50;10398205;28;20433;-70
2022/04/29 13:41:22;;;;;;;4.30;2.05;;;;;;;14.27;nan;102966.16;10411570;28;20436;-69
2022/04/29 13:46:26;;;;;;;7.13;2.30;;;;;;;14.21;nan;102943.13;10399288;28;20497;-71
2022/04/29 13:51:28;;;;;;;6.57;2.38;;;;;;;14.37;nan;103010.47;10397640;28;20103;-71
2022/04/29 13:56:29;;;;;;;5.13;2.15;;;;;;;13.96;nan;102835.94;10399548;28;20077;-71
2022/04/29 14:01:31;;;;;;;6.82;2.65;;;;;;;13.86;nan;102795.25;10398041;28;20068;-70
2022/04/29 14:06:33;;;;;;;8.82;2.30;;;;;;;13.81;nan;102767.88;10398134;28;20493;-70
2022/04/29 14:11:35;;;;;;;4.65;1.95;;;;;;;13.58;nan;102670.50;10390732;28;20816;-70
2022/04/29 14:16:37;;;;;;;8.25;1.95;;;;;;;13.54;nan;102657.19;10396477;28;20084;-69
2022/04/29 14:21:39;;;;;;;7.30;2.25;;;;;;;13.96;nan;102818.44;10397660;28;20048;-69
2022/04/29 14:26:40;;;;;;;5.35;1.98;;;;;;;14.27;nan;102947.72;10389936;28;20064;-69
2022/04/29 14:31:42;;;;;;;6.32;1.90;;;;;;;14.26;nan;102938.00;10400131;28;20069;-70
2022/04/29 14:36:44;;;;;;;5.28;2.00;;;;;;;14.42;nan;103000.09;10396097;28;20072;-70
2022/04/29 14:41:47;;;;;;;6.15;2.17;;;;;;;14.36;nan;102970.88;10406214;28;20068;-70
2022/04/29 14:46:50;;;;;;;6.70;2.95;;;;;;;14.05;nan;102845.91;10396715;28;20623;-70
2022/04/29 14:51:53;;;;;;;4.15;1.90;;;;;;;13.76;nan;102732.56;10394703;28;20142;-70
2022/04/29 14:56:54;;;;;;;5.30;2.05;;;;;;;13.40;nan;102578.66;10396082;28;20449;-70
2022/04/29 15:01:57;;;;;;;5.22;1.90;;;;;;;12.99;nan;102395.78;10371928;28;20124;-70
2022/04/29 15:06:58;;;;;;;5.13;1.88;;;;;;;12.91;nan;102364.88;10380860;28;20513;-69
2022/04/29 15:17:43;;;;;;;8.88;2.70;;;;;;;13.15;nan;102452.38;10376411;28;20528;-71
2022/04/29 15:22:45;;;;;;;8.15;2.63;;;;;;;13.06;nan;102417.06;10382510;28;20072;-70
2022/04/29 15:27:46;;;;;;;6.70;2.17;;;;;;;12.86;nan;102339.28;10384346;28;21053;-70
2022/04/29 15:32:48;;;;;;;6.13;2.30;;;;;;;12.35;nan;102132.69;10384387;28;20523;-69
2022/04/29 15:37:50;;;;;;;7.18;2.60;;;;;;;12.12;nan;102038.34;10373120;28;20045;-70
2022/04/29 15:42:51;;;;;;;8.70;2.72;;;;;;;12.02;nan;101989.94;10382926;28;20045;-70
2022/04/29 15:47:53;;;;;;;8.85;2.30;;;;;;;12.10;nan;102016.41;10383247;28;20041;-70
2022/04/29 15:52:55;;;;;;;11.55;2.53;;;;;;;12.10;nan;102021.66;10379459;28;20046;-71
2022/04/29 15:57:57;;;;;;;6.53;2.50;;;;;;;11.96;nan;101960.84;10373388;28;20052;-71
2022/04/29 16:02:59;;;;;;;10.48;2.70;;;;;;;11.79;nan;101891.19;10378274;28;20687;-70
2022/04/29 16:08:04;;;;;;;11.07;3.08;;;;;;;11.68;nan;101841.03;10380502;28;20049;-71
2022/04/29 16:13:05;;;;;;;7.72;2.55;;;;;;;11.41;nan;101733.53;10378857;28;20045;-71
2022/04/29 16:28:47;;;;;;;8.85;3.17;;;;;;;10.69;nan;101447.66;10400453;28;20068;-72
2022/04/29 16:33:51;;;;;;;8.93;3.42;;;;;;;10.60;nan;101408.13;10400666;28;20084;-70
2022/04/29 16:38:52;;;;;;;10.20;2.95;;;;;;;10.54;nan;101393.13;10401633;28;20045;-71
2022/04/29 16:43:54;;;;;;;6.03;2.75;;;;;;;10.45;nan;101351.00;10394842;28;20432;-71
2022/04/29 16:48:56;;;;;;;9.27;2.97;;;;;;;10.37;nan;101316.75;10401805;28;20045;-72
2022/04/29 16:53:58;;;;;;;10.60;3.63;;;;;;;10.34;nan;101300.06;10400381;28;20682;-71
2022/04/29 16:59:01;;;;;;;9.85;2.70;;;;;;;10.32;nan;101296.50;10396203;28;20044;-71
2022/04/29 17:04:02;;;;;;;6.30;2.45;;;;;;;10.36;nan;101307.13;10396703;28;20060;-71
2022/04/29 17:09:04;;;;;;;5.05;2.65;;;;;;;10.43;nan;101340.50;10395232;28;20095;-71
2022/04/29 17:14:06;;;;;;;5.82;2.47;;;;;;;10.35;nan;101307.09;10400203;28;20053;-71
2022/04/29 17:19:07;;;;;;;8.32;2.90;;;;;;;10.27;nan;101278.06;10394287;28;20068;-71
2022/04/29 17:24:09;;;;;;;7.75;2.40;;;;;;;10.25;nan;101264.94;10398839;28;20060;-71
2022/04/29 17:29:11;;;;;;;7.32;2.20;;;;;;;10.10;nan;101209.56;10399786;28;20069;-70
2022/04/29 17:34:15;;;;;;;5.95;2.10;;;;;;;9.88;nan;101127.06;10398270;28;20073;-73
2022/04/29 17:44:42;;;;;;;6.57;2.15;;;;;;;9.79;nan;101091.09;10393129;28;20052;-71
2022/04/29 17:55:12;;;;;;;6.85;2.22;;;;;;;9.58;nan;101006.84;10401228;28;20634;-71
2022/04/29 18:00:17;;;;;;;6.53;2.35;;;;;;;9.51;nan;100974.47;10403211;28;20053;-71
2022/04/29 18:05:24;;;;;;;4.43;2.10;;;;;;;9.40;nan;100932.41;10403599;28;20136;-72
2022/04/29 18:10:29;;;;;;;4.57;1.77;;;;;;;9.36;nan;100913.13;10396958;28;20049;-70
2022/04/29 18:15:31;;;;;;;11.18;3.22;;;;;;;9.32;nan;100899.94;10405218;28;20041;-72
2022/04/29 18:20:35;;;;;;;9.23;2.00;;;;;;;9.35;nan;100910.47;10398995;28;20045;-71
2022/04/29 18:25:37;;;;;;;7.57;2.10;;;;;;;9.27;nan;100875.44;10400200;28;20056;-71
2022/04/29 18:30:39;;;;;;;7.00;1.90;;;;;;;9.04;nan;100789.59;10408785;28;20040;-71
2022/04/29 18:35:41;;;;;;;8.40;2.00;;;;;;;8.86;nan;100722.13;10396560;28;20046;-71
2022/04/29 18:40:43;;;;;;;13.00;2.10;;;;;;;8.79;nan;100704.56;10400902;28;20044;-71
2022/04/29 18:45:45;;;;;;;7.38;1.88;;;;;;;8.76;nan;100688.81;10410452;28;20048;-71
2022/04/29 18:50:47;;;;;;;10.13;2.20;;;;;;;8.76;nan;100688.81;10388467;28;20155;-71
2022/04/29 18:55:49;;;;;;;8.23;2.83;;;;;;;8.79;nan;100699.34;10398279;28;20053;-72
2022/04/29 19:00:52;;;;;;;5.68;2.03;;;;;;;8.67;nan;100656.44;10401329;28;20048;-70
2022/04/29 19:05:53;;;;;;;6.85;1.92;;;;;;;8.61;nan;100627.59;10396393;28;20087;-71
2022/04/29 19:10:55;;;;;;;7.00;2.10;;;;;;;8.54;nan;100598.69;10396072;28;20084;-70
2022/04/29 19:15:57;;;;;;;12.43;2.30;;;;;;;8.48;nan;100582.06;10397112;28;20048;-70
2022/04/29 19:20:59;;;;;;;5.85;1.98;;;;;;;8.41;nan;100555.78;10397759;28;20073;-71
2022/04/29 19:26:01;;;;;;;8.00;3.60;;;;;;;8.25;nan;100495.41;10399584;28;20528;-73
2022/04/29 19:31:03;;;;;;;6.43;2.15;;;;;;;8.13;nan;100449.09;10382727;28;20041;-71
2022/04/29 19:36:13;;;;;;;8.45;2.28;;;;;;;8.05;nan;100413.28;10397325;28;20049;-71
2022/04/29 19:41:16;;;;;;;8.20;2.67;;;;;;;7.97;nan;100387.91;10396966;28;20041;-73
2022/04/29 19:46:18;;;;;;;7.20;2.15;;;;;;;7.88;nan;100350.31;10398050;28;20061;-70
2022/04/29 19:51:20;;;;;;;9.63;2.38;;;;;;;7.76;nan;100302.31;10405041;28;20069;-71
2022/04/29 19:56:22;;;;;;;9.70;3.33;;;;;;;7.60;nan;100245.53;10416008;28;20050;-73
2022/04/29 20:06:50;;;;;;;;;;;;;;;7.37;nan;100159.06;10400535;28;20143;-71
2022/04/29 20:11:52;;;;;;;5.72;1.98;;;;;;;7.31;nan;100128.59;10404173;28;20742;-70
2022/04/29 20:16:53;;;;;;;7.70;2.10;;;;;;;7.22;nan;100092.81;10403937;28;20403;-69
2022/04/29 20:21:55;;;;;;;6.18;2.63;;;;;;;7.19;nan;100091.88;10403756;28;20045;-73
2022/04/29 20:26:57;;;;;;;10.63;3.95;;;;;;;7.17;nan;100075.34;10416044;28;20152;-71
2022/04/29 20:31:59;;;;;;;6.03;2.35;;;;;;;7.14;nan;100059.69;10403992;28;20037;-73
2022/04/29 20:37:01;;;;;;;8.80;3.70;;;;;;;7.16;nan;100082.31;10407483;28;20052;-72
2022/04/29 20:47:24;;;;;;;9.48;2.75;;;;;;;7.24;nan;100108.47;10406309;28;20469;-72
2022/04/29 20:52:26;;;;;;;6.38;2.40;;;;;;;7.14;nan;100081.38;10401808;28;20065;-73
2022/04/29 20:57:28;;;;;;;10.05;2.70;;;;;;;7.02;nan;100032.53;10402592;28;20049;-72
2022/04/29 21:02:30;;;;;;;10.07;2.90;;;;;;;6.97;nan;100015.09;10405073;28;20064;-73
2022/04/29 21:07:52;;;;;;;5.30;2.60;;;;;;;6.86;nan;99974.13;10402308;28;20069;-71
2022/04/29 21:12:54;;;;;;;8.02;2.65;;;;;;;6.80;nan;99952.28;10412637;28;20041;-70
2022/04/29 21:17:57;;;;;;;9.82;2.80;;;;;;;6.74;nan;99932.28;10392807;28;20052;-70
2022/04/29 21:22:59;;;;;;;8.40;2.65;;;;;;;6.64;nan;99892.19;10395310;28;20049;-71
2022/04/29 21:28:11;;;;;;;7.68;2.67;;;;;;;6.55;nan;99859.06;10405453;28;20056;-72
2022/04/29 21:33:15;;;;;;;6.20;3.03;;;;;;;6.44;nan;99807.69;10402558;28;20045;-71
2022/04/29 21:38:18;;;;;;;9.45;3.42;;;;;;;6.35;nan;99779.78;10399578;28;20241;-71
2022/04/29 21:43:20;;;;;;;14.55;4.18;;;;;;;6.28;nan;99749.34;10400089;28;20084;-70
2022/04/29 21:48:21;;;;;;;7.95;3.25;;;;;;;6.21;nan;99729.28;10399920;28;20107;-71
2022/04/29 21:53:23;;;;;;;9.32;2.88;;;;;;;6.08;nan;99679.69;10399715;28;20091;-71
2022/04/29 21:58:25;;;;;;;14.38;3.70;;;;;;;6.04;nan;99669.22;10399240;28;20441;-69
2022/04/29 22:03:27;;;;;;;8.23;3.45;;;;;;;5.97;nan;99635.31;10398775;28;20053;-72
2022/04/29 22:08:59;;;;;;;7.68;3.10;;;;;;;5.92;nan;99621.34;10398645;28;20163;-70
2022/04/29 22:14:01;;;;;;;11.63;3.75;;;;;;;5.86;nan;99600.47;10400300;28;20041;-72
2022/04/29 22:19:03;;;;;;;9.95;3.35;;;;;;;5.79;nan;99573.47;10392039;28;20044;-71
2022/04/29 22:24:06;;;;;;;10.18;3.80;;;;;;;5.71;nan;99543.91;10382172;28;20041;-72
2022/04/29 22:29:08;;;;;;;9.50;3.53;;;;;;;5.60;nan;99503.91;10385084;28;20136;-72
2022/04/29 22:34:09;;;;;;;9.90;3.85;;;;;;;5.50;nan;99469.13;10383639;28;20048;-72
2022/04/29 22:39:15;;;;;;;9.85;3.33;;;;;;;5.45;nan;99453.47;10381594;28;20045;-71
2022/04/29 22:44:16;;;;;;;9.82;3.97;;;;;;;5.37;nan;99417.84;10381049;28;20045;-70
2022/04/29 22:49:18;;;;;;;12.73;3.90;;;;;;;5.29;nan;99391.78;10383721;28;20481;-71
2022/04/29 22:54:20;;;;;;;10.88;3.60;;;;;;;5.21;nan;99365.72;10388872;28;20069;-70
2022/04/29 22:59:21;;;;;;;9.40;3.90;;;;;;;5.15;nan;99334.47;10386910;28;20052;-71
2022/04/29 23:04:23;;;;;;;8.90;4.20;;;;;;;5.08;nan;99323.09;10383917;28;20045;-71
2022/04/29 23:09:24;;;;;;;17.98;4.30;;;;;;;5.01;nan;99284.06;10373991;28;20041;-72
2022/04/29 23:14:27;;;;;;;14.75;4.18;;;;;;;4.94;nan;99259.78;10381722;28;20069;-71
2022/04/29 23:19:30;;;;;;;11.90;4.03;;;;;;;4.89;nan;99240.66;10380237;28;20038;-71
2022/04/29 23:24:33;;;;;;;10.30;4.00;;;;;;;4.80;nan;99217.19;10390675;28;20060;-69
2022/04/29 23:29:35;;;;;;;12.05;4.18;;;;;;;4.70;nan;99170.38;10392688;28;20049;-70
2022/04/29 23:34:36;;;;;;;9.25;4.00;;;;;;;4.57;nan;99134.75;10388688;28;20056;-70
2022/04/29 23:39:38;;;;;;;17.38;4.18;;;;;;;4.43;nan;99072.34;10386960;28;20505;-70
2022/04/29 23:44:43;;;;;;;12.60;3.55;;;;;;;4.30;nan;99021.19;10391472;28;20535;-70
2022/04/29 23:49:45;;;;;;;11.15;4.05;;;;;;;4.15;nan;98970.03;10395879;28;20042;-69
2022/04/29 23:54:46;;;;;;;14.45;4.53;;;;;;;4.01;nan;98918.91;10393320;28;20049;-69
2022/04/29 23:59:48;;;;;;;12.68;3.90;;;;;;;3.92;nan;98887.69;10392019;28;20053;-69
